Time;durP1;ratioP1;P1;durP2;ratioP2;P2;SDS_P1;SDS_P2;PMS_P1;PMS_P2;Temp;Humidity;BMP_temperature;BMP_pressure;BME280_temperature;BME280_humidity;BME280_pressure;Samples;Min_cycle;Max_cycle;Signal;HPM_P1;HPM_P2
2022/11/17 00:01:06;;;;;;;;;;;;;;;8.19;67.86;93792.31;5012452;28;20014;-64
2022/11/17 00:03:31;;;;;;;;;;;;;;;8.20;67.64;93796.50;5032717;28;20018;-65
2022/11/17 00:06:01;;;;;;;;;;;;;;;8.21;67.79;93805.22;5032233;28;20101;-64
2022/11/17 00:08:26;;;;;;;;;;;;;;;8.22;67.44;93804.13;5013826;28;20494;-64
2022/11/17 00:10:51;;;;;;;;;;;;;;;8.21;67.28;93808.63;5046131;23;20022;-68
2022/11/17 00:16:00;;;;;;;;;;;;;;;8.24;67.81;93802.72;5018300;28;20020;-69
2022/11/17 00:21:18;;;;;;;;;;;;;;;8.41;67.67;93791.25;4996085;28;20016;-69
2022/11/17 00:23:46;;;;;;;;;;;;;;;8.50;67.62;93788.53;5010846;28;20052;-67
2022/11/17 00:26:17;;;;;;;;;;;;;;;8.60;67.93;93790.81;5011364;28;20016;-69
2022/11/17 00:28:42;;;;;;;;;;;;;;;8.68;67.43;93787.28;5011992;28;20490;-68
2022/11/17 00:34:03;;;;;;;;;;;;;;;8.83;66.98;93781.41;5012388;28;20423;-69
2022/11/17 00:36:29;;;;;;;;;;;;;;;8.92;67.03;93783.97;4980208;28;20060;-69
2022/11/17 00:38:54;;;;;;;;;;;;;;;9.01;67.13;93778.59;5010109;28;20014;-68
2022/11/17 00:41:19;;;;;;;;;;;;;;;9.08;66.68;93773.53;5005867;28;20097;-68
2022/11/17 00:43:44;;;;;;;;;;;;;;;9.13;66.54;93781.28;4995518;28;20431;-68
2022/11/17 00:46:10;;;;;;;;;;;;;;;9.22;65.92;93779.31;4993125;28;20014;-68
2022/11/17 00:48:35;;;;;;;;;;;;;;;9.28;66.15;93779.88;5012765;28;20050;-69
2022/11/17 00:51:02;;;;;;;;;;;;;;;9.35;65.50;93772.91;5010923;28;20053;-68
2022/11/17 00:53:27;;;;;;;;;;;;;;;9.41;65.33;93775.38;5012170;28;20014;-69
2022/11/17 00:55:52;;;;;;;;;;;;;;;9.47;65.94;93776.69;5011448;28;20371;-69
2022/11/17 00:58:18;;;;;;;;;;;;;;;9.54;65.76;93776.94;5011962;28;20060;-68
2022/11/17 01:00:43;;;;;;;;;;;;;;;9.61;64.97;93782.47;4993054;28;20018;-68
2022/11/17 01:03:08;;;;;;;;;;;;;;;9.68;64.55;93777.41;5011841;28;20021;-68
2022/11/17 01:05:33;;;;;;;;;;;;;;;9.76;64.49;93773.84;5011367;28;20054;-68
2022/11/17 01:07:58;;;;;;;;;;;;;;;9.83;64.26;93774.09;4994011;28;20060;-68
2022/11/17 01:10:24;;;;;;;;;;;;;;;9.54;64.46;93734.47;5011410;28;20467;-68
2022/11/17 01:12:49;;;;;;;;;;;;;;;9.94;64.71;93771.00;4994420;28;20010;-69
2022/11/17 01:15:14;;;;;;;;;;;;;;;9.95;64.20;93775.97;5009535;28;20018;-68
2022/11/17 01:17:39;;;;;;;;;;;;;;;9.99;63.79;93766.25;5027473;28;20014;-68
2022/11/17 01:20:05;;;;;;;;;;;;;;;10.03;63.61;93769.78;5026205;28;20549;-68
2022/11/17 01:22:30;;;;;;;;;;;;;;;10.04;63.36;93776.63;5011121;28;20017;-68
2022/11/17 01:24:55;;;;;;;;;;;;;;;10.06;63.40;93768.31;5025982;28;20034;-68
2022/11/17 01:27:20;;;;;;;;;;;;;;;10.06;63.13;93777.06;5012175;28;20100;-68
2022/11/17 01:29:46;;;;;;;;;;;;;;;10.08;62.37;93768.75;4994119;28;20413;-68
2022/11/17 01:32:11;;;;;;;;;;;;;;;10.10;63.06;93771.88;4993889;28;20079;-69
2022/11/17 01:34:36;;;;;;;;;;;;;;;10.08;62.96;93776.72;5025614;28;20015;-69
2022/11/17 01:37:20;;;;;;;;;;;;;;;10.11;62.63;93782.16;4992885;28;20010;-69
2022/11/17 01:39:45;;;;;;;;;;;;;;;10.13;62.75;93779.97;4994171;28;20014;-69
2022/11/17 01:42:19;;;;;;;;;;;;;;;10.16;63.04;93776.63;4993758;28;20076;-68
2022/11/17 01:44:56;;;;;;;;;;;;;;;10.20;62.18;93773.31;5010913;28;20010;-68
2022/11/17 01:47:31;;;;;;;;;;;;;;;10.23;62.37;93776.03;5010910;28;20014;-68
2022/11/17 01:49:59;;;;;;;;;;;;;;;10.28;62.30;93778.50;5025645;28;20680;-69
2022/11/17 01:52:24;;;;;;;;;;;;;;;10.32;62.47;93774.06;5014775;28;20015;-68
2022/11/17 01:54:52;;;;;;;;;;;;;;;10.34;61.71;93763.13;5025863;28;20010;-68
2022/11/17 01:57:21;;;;;;;;;;;;;;;10.32;61.44;93750.16;4991908;28;20014;-68
2022/11/17 01:59:52;;;;;;;;;;;;;;;10.31;61.54;93753.94;4989410;28;20129;-68
2022/11/17 02:02:18;;;;;;;;;;;;;;;10.33;61.39;93745.63;5009892;28;20060;-68
2022/11/17 02:04:48;;;;;;;;;;;;;;;10.35;61.31;93752.16;5011981;28;20018;-68
2022/11/17 02:07:18;;;;;;;;;;;;;;;10.35;61.17;93762.78;4991980;28;20112;-69
2022/11/17 02:09:44;;;;;;;;;;;;;;;9.41;63.16;93768.19;5009648;28;20014;-68
2022/11/17 02:12:11;;;;;;;;;;;;;;;9.95;62.99;93770.66;4994112;28;20022;-68
2022/11/17 02:14:37;;;;;;;;;;;;;;;10.11;62.97;93742.31;5010731;28;20155;-68
2022/11/17 02:17:03;;;;;;;;;;;;;;;10.22;62.25;93732.00;5011336;28;20051;-69
2022/11/17 02:19:33;;;;;;;;;;;;;;;10.35;62.73;93728.22;5011552;28;20007;-68
2022/11/17 02:22:17;;;;;;;;;;;;;;;10.45;62.16;93726.22;4989274;28;20021;-68
2022/11/17 02:24:56;;;;;;;;;;;;;;;10.52;61.25;93732.50;4989174;28;20060;-68
2022/11/17 02:27:31;;;;;;;;;;;;;;;10.49;61.40;93714.56;5010525;28;20014;-68
2022/11/17 02:30:02;;;;;;;;;;;;;;;10.48;61.43;93713.00;5011411;28;20053;-68
2022/11/17 02:33:06;;;;;;;;;;;;;;;10.52;61.92;93697.94;5009491;28;20037;-68
2022/11/17 02:35:39;;;;;;;;;;;;;;;10.41;61.85;93681.69;4929068;29;20011;-68
2022/11/17 02:38:09;;;;;;;;;;;;;;;10.48;60.83;93697.06;4930133;29;20007;-68
2022/11/17 02:40:47;;;;;;;;;;;;;;;10.41;61.17;93700.31;4966434;28;20017;-69
2022/11/17 02:46:02;;;;;;;;;;;;;;;10.47;61.89;93681.47;5009171;28;20087;-68
2022/11/17 02:48:31;;;;;;;;;;;;;;;10.58;61.30;93690.50;4991772;28;20018;-69
2022/11/17 02:50:57;;;;;;;;;;;;;;;10.60;61.29;93682.97;5025952;28;20617;-68
2022/11/17 02:53:24;;;;;;;;;;;;;;;10.58;60.83;93667.34;5009847;28;20089;-69
2022/11/17 02:55:50;;;;;;;;;;;;;;;10.57;60.66;93662.38;5010501;28;20072;-68
2022/11/17 02:58:15;;;;;;;;;;;;;;;10.48;60.88;93657.19;5008936;28;20018;-68
2022/11/17 03:00:52;;;;;;;;;;;;;;;10.52;60.93;93667.91;5009676;28;20694;-68
2022/11/17 03:03:41;;;;;;;;;;;;;;;10.58;60.39;93669.22;5009696;28;20017;-68
2022/11/17 03:06:06;;;;;;;;;;;;;;;10.61;60.95;93674.66;5001449;28;20018;-68
2022/11/17 03:08:46;;;;;;;;;;;;;;;10.68;60.95;93664.19;5009053;28;20090;-68
2022/11/17 03:11:12;;;;;;;;;;;;;;;10.63;60.59;93661.00;4991867;28;20076;-68
2022/11/17 03:13:40;;;;;;;;;;;;;;;10.68;60.24;93658.88;5009431;28;20013;-68
2022/11/17 03:16:14;;;;;;;;;;;;;;;10.71;60.99;93652.09;5008298;28;20013;-67
2022/11/17 03:18:58;;;;;;;;;;;;;;;10.66;60.31;93650.47;5008152;28;20366;-69
2022/11/17 03:21:28;;;;;;;;;;;;;;;10.44;60.22;93642.25;5010338;28;20010;-67
2022/11/17 03:24:02;;;;;;;;;;;;;;;10.22;61.02;93644.28;5023664;28;20022;-67
2022/11/17 03:26:33;;;;;;;;;;;;;;;10.00;60.63;93645.59;5005145;28;20010;-68
2022/11/17 03:28:59;;;;;;;;;;;;;;;9.84;61.52;93645.50;5000342;28;20037;-67
2022/11/17 03:31:25;;;;;;;;;;;;;;;9.78;62.55;93638.91;5008336;28;20018;-67
2022/11/17 03:33:51;;;;;;;;;;;;;;;9.77;62.41;93634.66;4992604;28;20439;-68
2022/11/17 03:36:20;;;;;;;;;;;;;;;9.75;62.51;93626.28;5010017;28;20010;-68
2022/11/17 03:38:49;;;;;;;;;;;;;;;9.79;62.73;93626.38;5027783;28;20018;-69
2022/11/17 03:41:15;;;;;;;;;;;;;;;9.83;62.26;93633.34;5028452;28;20492;-69
2022/11/17 03:43:41;;;;;;;;;;;;;;;9.80;62.36;93631.34;4995108;28;20030;-69
2022/11/17 03:46:13;;;;;;;;;;;;;;;9.80;63.07;93634.00;5027928;28;20018;-69
2022/11/17 03:48:57;;;;;;;;;;;;;;;9.87;62.94;93628.13;5012809;28;20006;-69
2022/11/17 03:51:24;;;;;;;;;;;;;;;10.00;63.06;93621.69;5014150;28;20092;-69
2022/11/17 03:53:50;;;;;;;;;;;;;;;10.09;63.22;93610.94;5012145;28;20054;-68
2022/11/17 03:56:26;;;;;;;;;;;;;;;10.16;63.28;93609.22;5013723;28;20057;-69
2022/11/17 03:58:58;;;;;;;;;;;;;;;10.24;63.08;93601.50;5012557;28;20118;-69
2022/11/17 04:01:25;;;;;;;;;;;;;;;10.31;62.47;93602.44;5013284;28;20505;-69
2022/11/17 04:03:50;;;;;;;;;;;;;;;10.40;62.67;93592.44;4996173;28;20064;-69
2022/11/17 04:06:15;;;;;;;;;;;;;;;10.48;62.70;93589.97;5011194;28;20058;-69
2022/11/17 04:08:41;;;;;;;;;;;;;;;10.57;62.11;93579.94;4994926;28;20011;-69
2022/11/17 04:16:41;;;;;;;;;;;;;;;10.66;61.27;93576.00;4995512;28;20014;-69
2022/11/17 04:19:06;;;;;;;;;;;;;;;10.65;61.54;93571.03;5012428;28;20121;-69
2022/11/17 04:21:32;;;;;;;;;;;;;;;10.67;61.60;93582.88;5013446;28;20037;-69
2022/11/17 04:23:57;;;;;;;;;;;;;;;10.74;61.47;93586.81;4995006;28;20383;-69
2022/11/17 04:29:06;;;;;;;;;;;;;;;10.87;60.63;93581.09;5012796;28;20040;-70
2022/11/17 04:31:31;;;;;;;;;;;;;;;10.91;60.92;93581.94;5011480;28;20442;-70
2022/11/17 04:34:00;;;;;;;;;;;;;;;10.99;60.57;93579.44;5013270;28;20012;-70
2022/11/17 04:36:26;;;;;;;;;;;;;;;11.06;60.36;93572.41;5026276;28;20014;-70
2022/11/17 04:38:52;;;;;;;;;;;;;;;11.13;59.94;93585.88;5011822;28;20018;-70
2022/11/17 04:44:03;;;;;;;;;;;;;;;11.14;60.39;93568.03;5013322;28;20033;-70
2022/11/17 04:46:29;;;;;;;;;;;;;;;11.09;59.41;93565.63;5008150;28;20018;-70
2022/11/17 04:48:55;;;;;;;;;;;;;;;11.12;60.21;93565.72;5012083;28;20053;-68
2022/11/17 04:51:21;;;;;;;;;;;;;;;11.15;60.21;93566.91;5010826;28;20061;-69
2022/11/17 04:53:46;;;;;;;;;;;;;;;11.18;59.67;93568.88;5012976;28;20109;-69
2022/11/17 04:56:12;;;;;;;;;;;;;;;11.19;59.75;93565.09;5026366;28;20542;-70
2022/11/17 04:58:37;;;;;;;;;;;;;;;11.21;59.46;93568.19;4993889;28;20908;-69
2022/11/17 05:01:12;;;;;;;;;;;;;;;11.18;59.91;93552.91;4991815;28;20014;-70
2022/11/17 05:03:48;;;;;;;;;;;;;;;11.13;59.64;93556.59;4993586;28;20490;-70
2022/11/17 05:06:15;;;;;;;;;;;;;;;11.05;59.80;93549.56;5010900;28;20014;-70
2022/11/17 05:08:40;;;;;;;;;;;;;;;10.99;59.62;93563.47;4993760;28;20379;-71
2022/11/17 05:13:50;;;;;;;;;;;;;;;11.02;59.94;93568.13;5010249;28;20067;-70
2022/11/17 05:19:01;;;;;;;;;;;;;;;11.17;59.59;93581.41;5012048;28;20060;-69
2022/11/17 05:21:26;;;;;;;;;;;;;;;11.26;59.84;93589.22;4995053;28;20010;-69
2022/11/17 05:23:54;;;;;;;;;;;;;;;11.31;60.02;93585.50;5012206;28;20041;-69
2022/11/17 05:26:20;;;;;;;;;;;;;;;11.38;59.99;93583.78;5010739;28;20010;-69
2022/11/17 05:28:45;;;;;;;;;;;;;;;11.29;59.46;93595.75;4994391;28;20010;-70
2022/11/17 05:31:11;;;;;;;;;;;;;;;11.06;59.72;93607.00;4992349;28;20528;-69
2022/11/17 05:33:36;;;;;;;;;;;;;;;10.66;60.63;93623.09;5027650;28;20014;-70
2022/11/17 05:36:02;;;;;;;;;;;;;;;9.05;66.09;93652.94;4992698;28;20037;-70
2022/11/17 05:38:27;;;;;;;;;;;;;;;8.84;67.64;93660.97;5011763;28;20010;-70
2022/11/17 05:40:52;;;;;;;;;;;;;;;8.72;68.29;93671.56;5010782;28;21121;-69
2022/11/17 05:43:17;;;;;;;;;;;;;;;8.04;71.50;93671.81;5010619;28;20550;-69
2022/11/17 05:45:43;;;;;;;;;;;;;;;9.14;68.54;93634.28;4992122;28;20014;-69
2022/11/17 05:48:09;;;;;;;;;;;;;;;9.73;67.12;93639.13;5010760;28;20157;-69
2022/11/17 05:50:34;;;;;;;;;;;;;;;10.07;66.50;93651.09;5010467;28;20112;-69
2022/11/17 05:52:59;;;;;;;;;;;;;;;10.15;64.58;93650.19;5026802;28;20485;-68
2022/11/17 05:55:25;;;;;;;;;;;;;;;9.80;65.63;93665.88;5010451;28;20538;-69
2022/11/17 05:57:51;;;;;;;;;;;;;;;10.20;64.79;93649.19;5009898;28;20015;-68
2022/11/17 06:00:16;;;;;;;;;;;;;;;10.33;63.92;93653.34;5010567;28;20046;-68
2022/11/17 06:02:45;;;;;;;;;;;;;;;10.62;64.26;93662.13;5010396;28;20018;-69
2022/11/17 06:05:11;;;;;;;;;;;;;;;10.82;64.93;93666.44;5010395;28;20446;-69
2022/11/17 06:07:37;;;;;;;;;;;;;;;10.86;63.90;93667.31;5010201;28;20479;-69
2022/11/17 06:10:02;;;;;;;;;;;;;;;11.00;64.35;93661.56;5010385;28;20010;-69
2022/11/17 06:12:28;;;;;;;;;;;;;;;11.13;64.37;93664.94;4993229;28;20633;-70
2022/11/17 06:14:53;;;;;;;;;;;;;;;11.17;64.84;93661.25;5024966;28;20021;-69
2022/11/17 06:17:18;;;;;;;;;;;;;;;11.25;63.83;93664.09;5010167;28;20021;-69
2022/11/17 06:19:45;;;;;;;;;;;;;;;11.29;63.71;93660.38;4992556;28;20015;-69
2022/11/17 06:22:11;;;;;;;;;;;;;;;11.35;64.07;93656.34;5010997;28;20414;-69
2022/11/17 06:24:36;;;;;;;;;;;;;;;11.41;63.78;93656.84;5010278;28;20108;-70
2022/11/17 06:27:01;;;;;;;;;;;;;;;11.38;63.54;93633.59;5010695;28;20006;-70
2022/11/17 06:29:27;;;;;;;;;;;;;;;11.39;62.91;93633.25;5010144;28;20015;-69
2022/11/17 06:31:55;;;;;;;;;;;;;;;11.44;63.86;93610.91;4992481;28;20025;-68
2022/11/17 06:34:20;;;;;;;;;;;;;;;11.53;63.39;93610.75;5009999;28;20033;-69
2022/11/17 06:36:45;;;;;;;;;;;;;;;11.61;63.46;93610.53;5010408;28;20694;-69
2022/11/17 06:39:10;;;;;;;;;;;;;;;11.69;63.71;93611.47;4992138;28;20007;-69
2022/11/17 06:41:36;;;;;;;;;;;;;;;11.76;63.44;93600.97;5009928;28;20188;-69
2022/11/17 06:44:01;;;;;;;;;;;;;;;11.83;63.03;93614.47;4992441;28;20019;-69
2022/11/17 06:46:36;;;;;;;;;;;;;;;11.88;62.48;93616.09;5008671;28;20069;-70
2022/11/17 06:49:03;;;;;;;;;;;;;;;11.97;62.91;93608.66;5009751;28;20014;-70
2022/11/17 06:51:29;;;;;;;;;;;;;;;12.00;62.46;93609.88;5008781;28;20018;-70
2022/11/17 06:53:54;;;;;;;;;;;;;;;12.03;62.28;93625.13;4991998;28;20028;-70
2022/11/17 06:56:19;;;;;;;;;;;;;;;12.02;62.20;93624.38;4992494;28;20011;-70
2022/11/17 06:58:45;;;;;;;;;;;;;;;12.05;62.04;93630.91;5009700;28;20443;-70
2022/11/17 07:01:11;;;;;;;;;;;;;;;12.11;61.78;93642.84;5009180;28;20498;-71
2022/11/17 07:03:37;;;;;;;;;;;;;;;12.15;62.07;93633.03;5009941;28;20097;-70
2022/11/17 07:06:03;;;;;;;;;;;;;;;12.17;62.19;93633.44;4991759;28;20049;-69
2022/11/17 07:08:29;;;;;;;;;;;;;;;12.18;62.78;93632.31;5010323;28;20006;-69
2022/11/17 07:10:55;;;;;;;;;;;;;;;12.21;63.42;93626.28;5008872;28;20379;-69
2022/11/17 07:13:22;;;;;;;;;;;;;;;12.25;63.77;93639.69;5010545;28;20032;-70
2022/11/17 07:15:49;;;;;;;;;;;;;;;12.20;62.04;93664.72;5007247;28;20017;-71
2022/11/17 07:18:16;;;;;;;;;;;;;;;11.41;63.04;93670.97;5010446;28;20006;-71
2022/11/17 07:20:41;;;;;;;;;;;;;;;11.91;63.13;93664.13;4997326;28;20011;-69
2022/11/17 07:23:07;;;;;;;;;;;;;;;12.12;62.94;93657.69;4990827;28;20014;-71
2022/11/17 07:25:32;;;;;;;;;;;;;;;12.20;63.07;93659.41;5000869;28;20014;-71
2022/11/17 07:27:58;;;;;;;;;;;;;;;12.26;63.23;93668.66;5009550;28;20006;-71
2022/11/17 07:30:23;;;;;;;;;;;;;;;12.33;63.16;93666.13;4991647;28;21628;-69
2022/11/17 07:32:48;;;;;;;;;;;;;;;12.41;63.33;93667.06;5010282;28;20006;-70
2022/11/17 07:35:14;;;;;;;;;;;;;;;12.51;63.47;93668.41;5007876;28;20041;-70
2022/11/17 07:37:40;;;;;;;;;;;;;;;12.56;63.18;93670.78;4990201;28;20010;-69
2022/11/17 07:40:05;;;;;;;;;;;;;;;12.60;63.10;93676.97;5006191;28;20533;-70
2022/11/17 07:42:31;;;;;;;;;;;;;;;12.68;63.11;93671.38;5009755;28;20501;-69
2022/11/17 07:44:56;;;;;;;;;;;;;;;12.80;62.70;93670.50;5004151;28;20017;-70
2022/11/17 07:47:21;;;;;;;;;;;;;;;12.80;62.18;93653.72;5007482;28;20077;-71
2022/11/17 07:49:47;;;;;;;;;;;;;;;12.77;61.99;93644.50;5007698;28;20364;-70
2022/11/17 07:52:12;;;;;;;;;;;;;;;12.84;61.86;93649.94;4991455;28;20073;-70
2022/11/17 07:54:37;;;;;;;;;;;;;;;12.95;61.78;93666.19;4986804;28;20434;-70
2022/11/17 07:57:02;;;;;;;;;;;;;;;13.01;61.45;93675.44;4989701;28;20018;-70
2022/11/17 07:59:27;;;;;;;;;;;;;;;12.98;61.26;93668.91;5008264;28;20014;-70
2022/11/17 08:01:53;;;;;;;;;;;;;;;13.00;61.36;93673.91;5007019;28;20018;-70
2022/11/17 08:04:18;;;;;;;;;;;;;;;13.05;61.65;93668.28;5007366;28;20010;-72
2022/11/17 08:06:44;;;;;;;;;;;;;;;12.98;61.10;93676.91;4990350;28;20025;-71
2022/11/17 08:09:11;;;;;;;;;;;;;;;12.63;59.96;93694.91;4992044;28;20010;-71
2022/11/17 08:11:36;;;;;;;;;;;;;;;12.67;62.38;93693.88;4990822;28;20025;-72
2022/11/17 08:14:01;;;;;;;;;;;;;;;12.71;63.20;93684.03;5008539;28;20014;-76
2022/11/17 08:16:29;;;;;;;;;;;;;;;12.71;63.07;93700.03;5008282;28;20010;-70
2022/11/17 08:18:55;;;;;;;;;;;;;;;12.57;62.58;93717.66;5009289;28;20007;-70
2022/11/17 08:21:20;;;;;;;;;;;;;;;12.44;63.75;93717.81;4989390;28;20774;-71
2022/11/17 08:23:48;;;;;;;;;;;;;;;12.53;64.37;93725.59;5012359;28;20021;-71
2022/11/17 08:26:14;;;;;;;;;;;;;;;11.44;63.79;93752.03;5010250;28;20010;-72
2022/11/17 08:28:41;;;;;;;;;;;;;;;11.67;64.83;93712.28;5011392;28;20565;-72
2022/11/17 08:31:06;;;;;;;;;;;;;;;10.48;67.34;93773.38;5010365;28;20050;-72
2022/11/17 08:33:31;;;;;;;;;;;;;;;11.57;67.29;93750.06;4992144;28;20014;-73
2022/11/17 08:35:57;;;;;;;;;;;;;;;12.14;67.49;93740.78;4993602;28;20011;-72
2022/11/17 08:38:27;;;;;;;;;;;;;;;12.56;67.17;93714.22;5009844;28;20105;-68
2022/11/17 08:40:52;;;;;;;;;;;;;;;12.94;66.99;93704.66;5027274;28;20014;-71
2022/11/17 08:43:18;;;;;;;;;;;;;;;13.29;67.01;93699.22;5013599;28;20057;-70
2022/11/17 08:45:43;;;;;;;;;;;;;;;13.57;65.70;93696.25;4993408;28;20013;-69
2022/11/17 08:48:08;;;;;;;;;;;;;;;13.70;65.21;93686.91;4994085;28;20017;-69
2022/11/17 08:50:34;;;;;;;;;;;;;;;13.75;64.88;93678.56;4994414;28;20011;-70
2022/11/17 08:53:01;;;;;;;;;;;;;;;13.78;64.05;93674.44;4994482;28;20021;-72
2022/11/17 08:55:26;;;;;;;;;;;;;;;13.90;62.95;93668.88;5011536;28;20046;-72
2022/11/17 08:57:51;;;;;;;;;;;;;;;14.05;62.64;93657.25;5012068;28;20431;-72
2022/11/17 09:00:19;;;;;;;;;;;;;;;14.26;62.11;93659.44;4994755;28;20026;-72
2022/11/17 09:02:44;;;;;;;;;;;;;;;14.30;61.22;93654.91;4995051;28;20060;-76
2022/11/17 09:05:10;;;;;;;;;;;;;;;14.27;61.02;93660.19;5023798;28;20445;-76
2022/11/17 09:07:35;;;;;;;;;;;;;;;14.51;60.89;93662.44;5001463;28;20017;-74
2022/11/17 09:10:02;;;;;;;;;;;;;;;14.39;59.59;93653.88;5024397;28;20015;-73
2022/11/17 09:12:28;;;;;;;;;;;;;;;14.35;59.72;93648.47;5013221;28;20113;-67
2022/11/17 09:14:53;;;;;;;;;;;;;;;14.59;60.00;93657.97;5012392;28;20482;-69
2022/11/17 09:17:18;;;;;;;;;;;;;;;14.83;60.27;93654.78;5027025;28;20013;-69
2022/11/17 09:19:43;;;;;;;;;;;;;;;14.98;60.03;93661.03;4993874;28;20010;-71
2022/11/17 09:22:08;;;;;;;;;;;;;;;15.11;59.54;93663.47;5012024;28;20483;-68
2022/11/17 09:24:34;;;;;;;;;;;;;;;15.14;58.67;93665.41;5012743;28;20010;-68
2022/11/17 09:27:01;;;;;;;;;;;;;;;15.27;58.90;93664.00;5011288;28;20040;-70
2022/11/17 09:29:27;;;;;;;;;;;;;;;15.32;58.46;93661.00;5012034;28;20010;-70
2022/11/17 09:31:52;;;;;;;;;;;;;;;15.06;57.17;93665.34;5019579;28;20018;-68
2022/11/17 09:34:17;;;;;;;;;;;;;;;15.05;58.70;93671.84;5012003;28;20010;-72
2022/11/17 09:36:42;;;;;;;;;;;;;;;15.23;58.96;93666.66;4992069;28;20018;-69
2022/11/17 09:39:07;;;;;;;;;;;;;;;15.51;58.68;93662.69;5011091;28;20395;-70
2022/11/17 09:41:37;;;;;;;;;;;;;;;15.63;58.15;93667.00;4993868;28;20422;-71
2022/11/17 09:44:02;;;;;;;;;;;;;;;15.66;57.66;93661.69;5011935;28;20006;-70
2022/11/17 09:46:46;;;;;;;;;;;;;;;15.63;57.66;93654.38;5011756;28;20800;-74
2022/11/17 09:49:17;;;;;;;;;;;;;;;15.59;57.15;93664.28;5011242;28;20084;-72
2022/11/17 09:51:43;;;;;;;;;;;;;;;15.59;57.35;93662.34;4988050;28;20080;-69
2022/11/17 09:54:27;;;;;;;;;;;;;;;15.63;57.97;93664.31;4993459;28;20497;-72
2022/11/17 09:56:53;;;;;;;;;;;;;;;15.66;57.85;93666.25;5009831;28;20010;-69
2022/11/17 09:59:20;;;;;;;;;;;;;;;15.87;57.94;93669.13;4978192;28;20424;-73
2022/11/17 10:01:45;;;;;;;;;;;;;;;16.10;57.48;93666.19;4992548;28;20487;-71
2022/11/17 10:04:12;;;;;;;;;;;;;;;16.15;56.04;93679.25;5018214;28;20014;-73
2022/11/17 10:06:37;;;;;;;;;;;;;;;15.87;56.02;93677.16;5010060;28;20116;-72
2022/11/17 10:09:11;;;;;;;;;;;;;;;16.64;56.47;93665.31;5011980;28;20515;-71
2022/11/17 10:11:38;;;;;;;;;;;;;;;16.98;54.75;93667.75;4993803;28;20017;-69
2022/11/17 10:14:10;;;;;;;;;;;;;;;17.17;54.89;93660.50;4994324;28;20064;-72
2022/11/17 10:16:37;;;;;;;;;;;;;;;17.21;54.14;93662.06;5011394;28;20459;-71
2022/11/17 10:19:22;;;;;;;;;;;;;;;17.21;52.93;93663.97;5012882;28;20079;-70
2022/11/17 10:21:49;;;;;;;;;;;;;;;16.71;52.10;93667.28;4991756;28;20100;-71
2022/11/17 10:24:33;;;;;;;;;;;;;;;16.80;52.62;93675.00;4994049;28;20050;-68
2022/11/17 10:26:58;;;;;;;;;;;;;;;17.35;52.62;93669.34;4993421;28;20013;-67
2022/11/17 10:29:24;;;;;;;;;;;;;;;17.73;52.20;93665.19;5011521;28;20007;-68
2022/11/17 10:31:49;;;;;;;;;;;;;;;17.98;51.41;93659.78;4993988;28;20383;-67
2022/11/17 10:34:31;;;;;;;;;;;;;;;18.11;50.68;93660.13;5010784;28;20065;-69
2022/11/17 10:37:00;;;;;;;;;;;;;;;18.25;49.60;93662.81;5009415;28;20017;-68
2022/11/17 10:39:40;;;;;;;;;;;;;;;18.03;48.79;93669.38;5026735;28;20016;-67
2022/11/17 10:42:31;;;;;;;;;;;;;;;18.12;49.42;93670.53;5007098;28;20006;-68
2022/11/17 10:45:00;;;;;;;;;;;;;;;17.67;48.49;93672.84;4989724;28;20042;-69
2022/11/17 10:47:25;;;;;;;;;;;;;;;17.50;49.66;93670.13;4991737;28;20007;-69
2022/11/17 10:50:04;;;;;;;;;;;;;;;18.16;49.48;93665.13;4990435;28;20017;-73
2022/11/17 10:52:29;;;;;;;;;;;;;;;17.09;49.30;93671.22;5007341;28;20014;-76
2022/11/17 10:55:14;;;;;;;;;;;;;;;17.30;49.83;93664.34;5010967;28;20007;-69
2022/11/17 10:57:42;;;;;;;;;;;;;;;17.37;49.60;93656.31;5011321;28;20014;-70
2022/11/17 11:00:20;;;;;;;;;;;;;;;17.24;49.59;93657.81;5010885;28;20011;-69
2022/11/17 11:02:45;;;;;;;;;;;;;;;17.53;49.22;93653.25;5011062;28;20002;-68
2022/11/17 11:05:15;;;;;;;;;;;;;;;17.02;50.46;93659.69;5010953;28;20022;-68
2022/11/17 11:07:41;;;;;;;;;;;;;;;17.66;49.70;93659.78;5024888;28;20018;-68
2022/11/17 11:10:14;;;;;;;;;;;;;;;17.39;48.19;93659.38;5026203;28;20653;-69
2022/11/17 11:12:58;;;;;;;;;;;;;;;17.81;48.35;93661.34;5026220;28;20091;-68
2022/11/17 11:15:24;;;;;;;;;;;;;;;17.22;48.88;93662.81;4992876;28;20014;-71
2022/11/17 11:17:50;;;;;;;;;;;;;;;17.87;48.53;93653.66;4992996;28;20022;-70
2022/11/17 11:20:16;;;;;;;;;;;;;;;18.28;47.67;93656.66;5011515;28;20104;-71
2022/11/17 11:22:54;;;;;;;;;;;;;;;18.62;47.59;93658.84;4991631;28;20105;-72
2022/11/17 11:25:37;;;;;;;;;;;;;;;19.26;46.78;93668.59;4993484;28;20105;-71
2022/11/17 11:28:18;;;;;;;;;;;;;;;19.55;47.01;93671.84;4993666;28;20014;-70
2022/11/17 11:30:53;;;;;;;;;;;;;;;19.10;46.79;93677.16;5011220;28;20379;-71
2022/11/17 11:33:32;;;;;;;;;;;;;;;19.35;45.78;93677.00;4992480;28;20021;-70
2022/11/17 11:36:06;;;;;;;;;;;;;;;19.30;46.11;93674.72;5025193;28;20049;-72
2022/11/17 11:38:54;;;;;;;;;;;;;;;19.55;45.79;93680.72;4991409;28;20049;-71
2022/11/17 11:41:27;;;;;;;;;;;;;;;19.54;45.14;93689.19;4991619;28;20018;-72
2022/11/17 11:44:01;;;;;;;;;;;;;;;19.54;45.25;93683.81;4991486;28;20011;-70
2022/11/17 11:46:47;;;;;;;;;;;;;;;19.77;45.24;93686.00;5008625;28;20570;-70
2022/11/17 11:49:18;;;;;;;;;;;;;;;19.56;44.31;93684.94;5009784;28;20061;-70
2022/11/17 11:51:47;;;;;;;;;;;;;;;19.32;45.02;93677.78;5009482;28;20494;-71
2022/11/17 11:54:15;;;;;;;;;;;;;;;18.82;45.51;93678.81;4993031;28;20053;-71
2022/11/17 11:56:41;;;;;;;;;;;;;;;18.60;46.53;93672.72;5011505;28;20468;-71
2022/11/17 11:59:26;;;;;;;;;;;;;;;18.95;46.14;93665.69;5014632;28;20097;-70
2022/11/17 12:02:10;;;;;;;;;;;;;;;18.53;45.69;93666.56;4989816;28;20018;-71
2022/11/17 12:04:44;;;;;;;;;;;;;;;17.04;48.08;93673.50;4996236;28;20014;-71
2022/11/17 12:07:21;;;;;;;;;;;;;;;17.06;48.49;93680.06;5012631;28;20113;-71
2022/11/17 12:10:04;;;;;;;;;;;;;;;16.46;49.46;93679.78;5014349;28;20534;-71
2022/11/17 12:12:31;;;;;;;;;;;;;;;17.27;47.92;93668.56;4996622;28;20414;-71
2022/11/17 12:15:05;;;;;;;;;;;;;;;17.23;48.56;93675.09;5013157;28;20164;-71
2022/11/17 12:17:30;;;;;;;;;;;;;;;16.36;49.76;93674.00;5013809;28;20109;-72
2022/11/17 12:19:58;;;;;;;;;;;;;;;16.36;49.30;93683.97;4996205;28;20117;-71
2022/11/17 12:22:30;;;;;;;;;;;;;;;16.01;50.46;93684.50;5013356;28;20014;-71
2022/11/17 12:24:56;;;;;;;;;;;;;;;15.61;51.67;93680.78;5009568;28;20057;-70
2022/11/17 12:27:31;;;;;;;;;;;;;;;15.38;50.76;93680.19;5015936;28;20471;-70
2022/11/17 12:29:57;;;;;;;;;;;;;;;15.51;50.95;93671.50;5015805;28;20155;-71
2022/11/17 12:32:40;;;;;;;;;;;;;;;15.66;50.79;93679.66;5033365;28;20109;-71
2022/11/17 12:35:18;;;;;;;;;;;;;;;16.13;48.99;93670.06;4994852;28;20018;-71
2022/11/17 12:37:43;;;;;;;;;;;;;;;16.85;47.43;93672.72;4995411;28;20010;-70
2022/11/17 12:40:29;;;;;;;;;;;;;;;16.47;47.31;93674.03;5011612;28;20017;-70
2022/11/17 12:43:13;;;;;;;;;;;;;;;16.23;47.95;93664.75;5012653;28;20691;-70
2022/11/17 12:45:56;;;;;;;;;;;;;;;16.66;47.23;93669.53;5013057;28;20002;-70
2022/11/17 12:48:23;;;;;;;;;;;;;;;17.17;46.30;93663.19;4994148;28;20068;-71
2022/11/17 12:50:55;;;;;;;;;;;;;;;16.90;46.76;93668.88;5013110;28;20015;-70
2022/11/17 12:53:25;;;;;;;;;;;;;;;16.42;47.13;93677.09;5012816;28;20265;-70
2022/11/17 12:56:06;;;;;;;;;;;;;;;16.04;48.80;93681.09;5012468;28;20065;-69
2022/11/17 12:58:43;;;;;;;;;;;;;;;15.80;48.84;93685.13;4995688;28;20025;-71
2022/11/17 13:01:15;;;;;;;;;;;;;;;15.68;49.84;93677.41;4995354;28;20474;-69
2022/11/17 13:03:51;;;;;;;;;;;;;;;15.44;49.85;93678.69;5012019;28;20101;-69
2022/11/17 13:06:17;;;;;;;;;;;;;;;15.65;50.20;93665.50;5012962;28;20025;-73
2022/11/17 13:08:54;;;;;;;;;;;;;;;15.42;50.77;93676.41;5026663;28;20081;-71
2022/11/17 13:11:19;;;;;;;;;;;;;;;15.48;50.03;93668.78;4994880;28;20024;-72
2022/11/17 13:13:45;;;;;;;;;;;;;;;15.77;49.59;93665.22;4995431;28;20458;-74
2022/11/17 13:16:20;;;;;;;;;;;;;;;15.95;48.78;93673.38;5012693;28;20006;-70
2022/11/17 13:18:46;;;;;;;;;;;;;;;15.25;50.36;93666.28;4994476;28;20062;-71
2022/11/17 13:21:31;;;;;;;;;;;;;;;15.45;49.48;93664.91;5012003;28;20011;-72
2022/11/17 13:23:57;;;;;;;;;;;;;;;15.44;50.03;93673.34;5012320;28;20037;-70